createdAt,value
2023-04-22T00:03:15.455Z,18.83
2023-04-22T00:08:19.096Z,15.52
2023-04-22T00:13:22.446Z,15.23
2023-04-22T00:18:27.385Z,16.83
2023-04-22T00:23:30.967Z,14.80
2023-04-22T00:28:37.023Z,14.13
2023-04-22T00:33:41.894Z,16.13
2023-04-22T00:38:50.313Z,16.85
2023-04-22T00:43:54.531Z,16.27
2023-04-22T00:49:00.047Z,15.77
2023-04-22T00:54:04.731Z,17.40
2023-04-22T00:59:09.878Z,18.58
2023-04-22T01:04:15.568Z,18.95
2023-04-22T01:09:20.200Z,19.67
2023-04-22T01:14:23.986Z,19.42
2023-04-22T01:19:29.454Z,21.15
2023-04-22T01:24:34.819Z,22.83
2023-04-22T01:29:38.986Z,22.45
2023-04-22T01:34:42.597Z,22.75
2023-04-22T01:39:48.632Z,21.25
2023-04-22T01:44:52.003Z,21.42
2023-04-22T01:49:55.414Z,20.55
2023-04-22T01:55:01.262Z,21.02
2023-04-22T02:00:06.028Z,22.20
2023-04-22T02:05:10.436Z,21.65
2023-04-22T02:10:15.566Z,21.63
2023-04-22T02:15:19.079Z,21.02
2023-04-22T02:20:22.776Z,20.88
2023-04-22T02:25:28.041Z,19.88
2023-04-22T02:30:31.461Z,19.35
2023-04-22T02:35:35.172Z,19.52
2023-04-22T02:40:39.929Z,20.25
2023-04-22T02:45:43.672Z,18.83
2023-04-22T02:50:47.324Z,17.95
2023-04-22T02:55:52.439Z,17.98
2023-04-22T03:00:57.218Z,18.10
2023-04-22T03:06:00.777Z,17.00
2023-04-22T03:11:06.264Z,16.85
2023-04-22T03:16:09.783Z,16.33
2023-04-22T03:21:13.241Z,17.17
2023-04-22T03:26:17.992Z,17.67
2023-04-22T03:31:21.635Z,16.80
2023-04-22T03:36:25.128Z,16.58
2023-04-22T03:41:30.019Z,15.18
2023-04-22T03:46:33.697Z,16.52
2023-04-22T03:51:38.004Z,16.55
2023-04-22T03:56:42.803Z,16.10
2023-04-22T04:01:48.331Z,14.38
2023-04-22T04:06:51.869Z,15.07
2023-04-22T04:11:56.745Z,15.65
2023-04-22T04:17:00.118Z,16.17
2023-04-22T04:22:03.600Z,16.70
2023-04-22T04:27:08.830Z,17.15
2023-04-22T04:32:12.438Z,18.83
2023-04-22T04:37:16.851Z,18.20
2023-04-22T04:42:24.534Z,16.83
2023-04-22T04:47:28.488Z,15.90
2023-04-22T04:52:32.764Z,15.73
2023-04-22T04:57:38.561Z,14.68
2023-04-22T05:02:42.825Z,16.92
2023-04-22T05:07:46.729Z,14.70
2023-04-22T05:12:51.511Z,14.23
2023-04-22T05:17:55.444Z,14.02
2023-04-22T05:22:58.803Z,17.45
2023-04-22T05:28:03.999Z,18.58
2023-04-22T05:33:08.675Z,17.13
2023-04-22T05:38:12.336Z,15.60
2023-04-22T05:43:17.314Z,16.27
2023-04-22T05:48:20.687Z,15.30
2023-04-22T05:53:24.138Z,16.65
2023-04-22T05:58:28.863Z,15.40
2023-04-22T06:03:32.912Z,15.57
2023-04-22T06:08:36.565Z,15.57
2023-04-22T06:13:41.357Z,12.40
2023-04-22T06:18:44.825Z,12.32
2023-04-22T06:23:48.480Z,12.77
2023-04-22T06:28:53.306Z,12.18
2023-04-22T06:33:56.703Z,12.60
2023-04-22T06:39:00.193Z,11.82
2023-04-22T06:44:05.029Z,13.18
2023-04-22T06:49:08.490Z,13.48
2023-04-22T06:54:11.901Z,11.90
2023-04-22T06:59:16.639Z,12.50
2023-04-22T07:04:20.516Z,13.38
2023-04-22T07:09:23.924Z,13.38
2023-04-22T07:14:28.700Z,13.20
2023-04-22T07:19:33.331Z,12.20
2023-04-22T07:24:39.295Z,12.25
2023-04-22T07:29:44.015Z,12.13
2023-04-22T07:34:47.483Z,13.18
2023-04-22T07:39:50.870Z,12.73
2023-04-22T07:44:55.685Z,13.85
2023-04-22T07:49:59.291Z,13.38
2023-04-22T07:55:02.746Z,14.25
2023-04-22T17:19:56.914Z,4.65
2023-04-22T17:25:00.545Z,5.30
2023-04-22T17:30:04.391Z,5.30
2023-04-22T17:35:10.877Z,4.80
2023-04-22T17:40:14.299Z,4.70
2023-04-22T17:45:17.661Z,4.82
2023-04-22T17:50:23.332Z,4.97
2023-04-22T17:55:26.959Z,5.68
2023-04-22T18:00:31.310Z,5.55
2023-04-22T18:05:42.886Z,5.93
2023-04-22T18:10:46.418Z,6.90
2023-04-22T18:15:49.850Z,8.15
2023-04-22T18:20:55.668Z,8.38
2023-04-22T18:25:59.393Z,8.63
2023-04-22T18:31:03.065Z,14.15
2023-04-22T18:36:09.095Z,16.48
2023-04-22T18:41:15.112Z,15.85
2023-04-22T18:46:20.751Z,12.02
2023-04-22T18:51:27.707Z,12.15
2023-04-22T18:56:33.349Z,11.20
2023-04-22T19:01:38.972Z,10.38
2023-04-22T19:06:46.930Z,9.13
2023-04-22T19:11:52.864Z,9.75
2023-04-22T19:16:58.573Z,9.93
2023-04-22T19:22:06.355Z,10.95
2023-04-22T19:27:13.152Z,11.93
2023-04-22T19:32:19.348Z,11.55
2023-04-22T19:37:26.580Z,12.73
2023-04-22T19:42:31.160Z,14.32
2023-04-22T19:47:35.624Z,14.70
2023-04-22T19:52:42.770Z,13.85
2023-04-22T19:57:46.840Z,14.13
2023-04-22T20:02:51.465Z,15.68
2023-04-22T20:07:59.067Z,15.98
2023-04-22T20:13:04.511Z,16.17
2023-04-22T20:18:08.858Z,15.70
2023-04-22T20:23:15.444Z,14.77
2023-04-22T20:28:19.415Z,16.70
2023-04-22T20:33:23.323Z,16.55
2023-04-22T20:38:31.439Z,16.77
2023-04-22T20:43:35.501Z,18.17
2023-04-22T20:48:38.942Z,17.27
2023-04-22T20:53:44.156Z,17.08
2023-04-22T20:58:48.076Z,19.92
2023-04-22T21:03:53.223Z,18.83
2023-04-22T21:08:58.748Z,18.55
2023-04-22T21:14:02.658Z,20.58
2023-04-22T21:19:08.332Z,19.42
2023-04-22T21:24:15.110Z,19.48
2023-04-22T21:29:18.992Z,19.35
2023-04-22T21:34:22.624Z,20.10
2023-04-22T21:39:27.708Z,19.88
2023-04-22T21:44:31.129Z,22.35
2023-04-22T21:49:34.577Z,23.17
2023-04-22T21:54:39.591Z,21.45
2023-04-22T21:59:43.437Z,21.10
2023-04-22T22:04:47.168Z,19.52
2023-04-22T22:09:52.896Z,20.67
2023-04-22T22:14:56.317Z,21.25
2023-04-22T22:19:59.811Z,22.25
2023-04-22T22:25:04.748Z,23.05
2023-04-22T22:30:09.542Z,20.50
2023-04-22T22:35:13.600Z,22.65
2023-04-22T22:40:18.368Z,20.35
2023-04-22T22:45:22.049Z,21.13
2023-04-22T22:50:26.244Z,23.17
2023-04-22T22:55:31.276Z,22.90
2023-04-22T23:00:34.983Z,22.67
2023-04-22T23:05:38.763Z,22.05
2023-04-22T23:10:43.520Z,22.35
2023-04-22T23:15:47.018Z,23.02
2023-04-22T23:20:51.105Z,21.95
2023-04-22T23:25:56.935Z,22.80
2023-04-22T23:31:01.801Z,21.52
2023-04-22T23:36:07.994Z,22.60
2023-04-22T23:41:13.384Z,21.85
2023-04-22T23:46:18.554Z,21.48
2023-04-22T23:51:22.563Z,22.60
2023-04-22T23:56:28.067Z,22.52
